sensor_id;sensor_type;location;lat;lon;timestamp;temperature;humidity
5868;DHT22;2960;49.142;7.768;2022-12-11T00:02:11;-0.60;61.90
5868;DHT22;2960;49.142;7.768;2022-12-11T00:04:38;-0.60;61.90
5868;DHT22;2960;49.142;7.768;2022-12-11T00:07:07;-0.70;61.80
5868;DHT22;2960;49.142;7.768;2022-12-11T00:09:34;-0.70;61.80
5868;DHT22;2960;49.142;7.768;2022-12-11T00:12:01;-0.70;61.80
5868;DHT22;2960;49.142;7.768;2022-12-11T00:14:30;-0.70;61.80
5868;DHT22;2960;49.142;7.768;2022-12-11T00:16:57;-0.70;61.80
5868;DHT22;2960;49.142;7.768;2022-12-11T00:19:24;-0.70;61.80
5868;DHT22;2960;49.142;7.768;2022-12-11T00:21:51;-0.70;61.80
5868;DHT22;2960;49.142;7.768;2022-12-11T00:24:20;-0.70;61.70
5868;DHT22;2960;49.142;7.768;2022-12-11T00:26:47;-0.80;61.70
5868;DHT22;2960;49.142;7.768;2022-12-11T00:29:14;-0.80;61.70
5868;DHT22;2960;49.142;7.768;2022-12-11T00:31:41;-0.80;62.50
5868;DHT22;2960;49.142;7.768;2022-12-11T00:34:09;-0.80;61.70
5868;DHT22;2960;49.142;7.768;2022-12-11T00:36:37;-0.80;61.80
5868;DHT22;2960;49.142;7.768;2022-12-11T00:39:05;-0.90;61.60
5868;DHT22;2960;49.142;7.768;2022-12-11T00:41:34;-0.90;61.60
5868;DHT22;2960;49.142;7.768;2022-12-11T00:44:01;-0.90;62.50
5868;DHT22;2960;49.142;7.768;2022-12-11T00:46:28;-0.90;61.70
5868;DHT22;2960;49.142;7.768;2022-12-11T00:48:55;-0.90;61.60
5868;DHT22;2960;49.142;7.768;2022-12-11T00:51:23;-1.00;61.50
5868;DHT22;2960;49.142;7.768;2022-12-11T00:53:51;-1.00;61.60
5868;DHT22;2960;49.142;7.768;2022-12-11T00:56:20;-1.00;62.30
5868;DHT22;2960;49.142;7.768;2022-12-11T00:58:49;-1.00;61.60
5868;DHT22;2960;49.142;7.768;2022-12-11T01:01:18;-1.00;62.40
5868;DHT22;2960;49.142;7.768;2022-12-11T01:03:46;-1.00;61.60
5868;DHT22;2960;49.142;7.768;2022-12-11T01:06:16;-1.00;61.70
5868;DHT22;2960;49.142;7.768;2022-12-11T01:08:44;-1.00;61.70
5868;DHT22;2960;49.142;7.768;2022-12-11T01:11:14;-1.00;61.70
5868;DHT22;2960;49.142;7.768;2022-12-11T01:13:41;-1.00;61.80
5868;DHT22;2960;49.142;7.768;2022-12-11T01:16:12;-1.00;61.80
5868;DHT22;2960;49.142;7.768;2022-12-11T01:18:41;-1.00;61.80
5868;DHT22;2960;49.142;7.768;2022-12-11T01:21:11;-1.00;61.90
5868;DHT22;2960;49.142;7.768;2022-12-11T01:23:39;-1.00;61.90
5868;DHT22;2960;49.142;7.768;2022-12-11T01:26:08;-1.00;61.90
5868;DHT22;2960;49.142;7.768;2022-12-11T01:28:37;-0.90;62.00
5868;DHT22;2960;49.142;7.768;2022-12-11T01:31:07;-0.90;62.10
5868;DHT22;2960;49.142;7.768;2022-12-11T01:33:36;-0.90;62.20
5868;DHT22;2960;49.142;7.768;2022-12-11T01:36:07;-0.80;62.30
5868;DHT22;2960;49.142;7.768;2022-12-11T01:38:35;-0.80;62.30
5868;DHT22;2960;49.142;7.768;2022-12-11T01:41:02;-0.80;62.40
5868;DHT22;2960;49.142;7.768;2022-12-11T01:43:30;-0.80;62.40
5868;DHT22;2960;49.142;7.768;2022-12-11T01:45:57;-0.70;62.50
5868;DHT22;2960;49.142;7.768;2022-12-11T01:48:26;-0.70;62.50
5868;DHT22;2960;49.142;7.768;2022-12-11T01:50:59;-0.70;62.60
5868;DHT22;2960;49.142;7.768;2022-12-11T01:53:29;-0.60;62.70
5868;DHT22;2960;49.142;7.768;2022-12-11T01:55:59;-0.60;62.70
5868;DHT22;2960;49.142;7.768;2022-12-11T01:58:29;-0.60;62.80
5868;DHT22;2960;49.142;7.768;2022-12-11T02:00:59;-0.60;62.90
5868;DHT22;2960;49.142;7.768;2022-12-11T02:03:28;-0.50;63.00
5868;DHT22;2960;49.142;7.768;2022-12-11T02:05:59;-0.50;63.00
5868;DHT22;2960;49.142;7.768;2022-12-11T02:08:27;-0.40;63.20
5868;DHT22;2960;49.142;7.768;2022-12-11T02:11:02;-0.50;63.10
5868;DHT22;2960;49.142;7.768;2022-12-11T02:13:38;-0.40;63.30
5868;DHT22;2960;49.142;7.768;2022-12-11T02:16:16;-0.40;63.30
5868;DHT22;2960;49.142;7.768;2022-12-11T02:18:50;-0.40;63.30
5868;DHT22;2960;49.142;7.768;2022-12-11T02:21:25;-0.30;63.40
5868;DHT22;2960;49.142;7.768;2022-12-11T02:24:06;-0.30;63.40
5868;DHT22;2960;49.142;7.768;2022-12-11T02:27:20;-0.30;63.40
5868;DHT22;2960;49.142;7.768;2022-12-11T02:29:59;-0.20;63.50
5868;DHT22;2960;49.142;7.768;2022-12-11T02:32:33;-0.20;63.60
5868;DHT22;2960;49.142;7.768;2022-12-11T02:35:08;-0.20;63.70
5868;DHT22;2960;49.142;7.768;2022-12-11T02:37:39;-0.20;63.60
5868;DHT22;2960;49.142;7.768;2022-12-11T02:40:11;-0.20;63.70
5868;DHT22;2960;49.142;7.768;2022-12-11T02:42:42;-0.10;63.70
5868;DHT22;2960;49.142;7.768;2022-12-11T02:45:13;-0.10;63.80
5868;DHT22;2960;49.142;7.768;2022-12-11T02:47:44;-0.10;63.80
5868;DHT22;2960;49.142;7.768;2022-12-11T02:50:15;-0.10;63.80
5868;DHT22;2960;49.142;7.768;2022-12-11T02:52:45;0.00;63.90
5868;DHT22;2960;49.142;7.768;2022-12-11T02:55:15;0.00;63.90
5868;DHT22;2960;49.142;7.768;2022-12-11T02:57:45;0.00;64.00
5868;DHT22;2960;49.142;7.768;2022-12-11T03:00:16;0.00;64.00
5868;DHT22;2960;49.142;7.768;2022-12-11T03:02:44;0.20;64.20
5868;DHT22;2960;49.142;7.768;2022-12-11T03:05:12;0.00;64.00
5868;DHT22;2960;49.142;7.768;2022-12-11T03:07:42;0.00;64.10
5868;DHT22;2960;49.142;7.768;2022-12-11T03:10:11;0.10;64.20
5868;DHT22;2960;49.142;7.768;2022-12-11T03:12:42;0.10;64.30
5868;DHT22;2960;49.142;7.768;2022-12-11T03:15:13;0.10;64.30
5868;DHT22;2960;49.142;7.768;2022-12-11T03:17:49;0.10;64.30
5868;DHT22;2960;49.142;7.768;2022-12-11T03:20:30;0.10;64.40
5868;DHT22;2960;49.142;7.768;2022-12-11T03:23:10;0.10;64.40
5868;DHT22;2960;49.142;7.768;2022-12-11T03:25:48;0.10;64.50
5868;DHT22;2960;49.142;7.768;2022-12-11T03:28:22;0.10;64.50
5868;DHT22;2960;49.142;7.768;2022-12-11T03:30:55;0.10;64.60
5868;DHT22;2960;49.142;7.768;2022-12-11T03:33:25;0.10;64.60
5868;DHT22;2960;49.142;7.768;2022-12-11T03:36:00;0.20;64.70
5868;DHT22;2960;49.142;7.768;2022-12-11T03:38:32;0.20;64.70
5868;DHT22;2960;49.142;7.768;2022-12-11T03:41:04;0.20;64.80
5868;DHT22;2960;49.142;7.768;2022-12-11T03:43:33;0.20;64.80
5868;DHT22;2960;49.142;7.768;2022-12-11T03:46:02;0.20;65.50
5868;DHT22;2960;49.142;7.768;2022-12-11T03:48:33;0.20;64.80
5868;DHT22;2960;49.142;7.768;2022-12-11T03:51:04;0.20;64.80
5868;DHT22;2960;49.142;7.768;2022-12-11T03:53:32;0.20;64.80
5868;DHT22;2960;49.142;7.768;2022-12-11T03:56:01;0.30;64.90
5868;DHT22;2960;49.142;7.768;2022-12-11T03:58:30;0.30;64.80
5868;DHT22;2960;49.142;7.768;2022-12-11T04:00:57;0.30;64.90
5868;DHT22;2960;49.142;7.768;2022-12-11T04:03:26;0.40;65.00
5868;DHT22;2960;49.142;7.768;2022-12-11T04:05:54;0.40;65.00
5868;DHT22;2960;49.142;7.768;2022-12-11T04:08:22;0.30;64.90
5868;DHT22;2960;49.142;7.768;2022-12-11T04:10:50;0.40;65.00
5868;DHT22;2960;49.142;7.768;2022-12-11T04:13:39;0.40;65.10
5868;DHT22;2960;49.142;7.768;2022-12-11T04:16:07;0.40;65.10
5868;DHT22;2960;49.142;7.768;2022-12-11T04:18:35;0.40;65.10
5868;DHT22;2960;49.142;7.768;2022-12-11T04:21:19;0.40;65.10
5868;DHT22;2960;49.142;7.768;2022-12-11T04:24:05;0.40;65.20
5868;DHT22;2960;49.142;7.768;2022-12-11T04:26:42;0.40;65.20
5868;DHT22;2960;49.142;7.768;2022-12-11T04:29:10;0.40;65.20
5868;DHT22;2960;49.142;7.768;2022-12-11T04:31:37;0.40;65.20
5868;DHT22;2960;49.142;7.768;2022-12-11T04:34:06;0.40;65.20
5868;DHT22;2960;49.142;7.768;2022-12-11T04:36:33;0.40;65.20
5868;DHT22;2960;49.142;7.768;2022-12-11T04:39:00;0.50;65.40
5868;DHT22;2960;49.142;7.768;2022-12-11T04:41:27;0.50;65.40
5868;DHT22;2960;49.142;7.768;2022-12-11T04:43:54;0.50;65.40
5868;DHT22;2960;49.142;7.768;2022-12-11T04:46:23;0.50;65.40
5868;DHT22;2960;49.142;7.768;2022-12-11T04:48:51;0.50;65.50
5868;DHT22;2960;49.142;7.768;2022-12-11T04:51:20;0.50;65.40
5868;DHT22;2960;49.142;7.768;2022-12-11T04:53:47;0.50;65.40
5868;DHT22;2960;49.142;7.768;2022-12-11T04:56:15;0.60;65.50
5868;DHT22;2960;49.142;7.768;2022-12-11T04:58:43;0.60;65.50
5868;DHT22;2960;49.142;7.768;2022-12-11T05:01:14;0.60;66.30
5868;DHT22;2960;49.142;7.768;2022-12-11T05:03:42;0.60;65.60
5868;DHT22;2960;49.142;7.768;2022-12-11T05:06:10;0.60;65.60
5868;DHT22;2960;49.142;7.768;2022-12-11T05:08:40;0.60;65.60
5868;DHT22;2960;49.142;7.768;2022-12-11T05:11:10;0.60;65.70
5868;DHT22;2960;49.142;7.768;2022-12-11T05:13:38;0.60;65.70
5868;DHT22;2960;49.142;7.768;2022-12-11T05:16:09;0.60;65.80
5868;DHT22;2960;49.142;7.768;2022-12-11T05:18:37;0.60;65.70
5868;DHT22;2960;49.142;7.768;2022-12-11T05:21:07;0.60;65.80
5868;DHT22;2960;49.142;7.768;2022-12-11T05:23:35;0.70;65.90
5868;DHT22;2960;49.142;7.768;2022-12-11T05:26:06;0.70;65.90
5868;DHT22;2960;49.142;7.768;2022-12-11T05:28:37;0.70;65.90
5868;DHT22;2960;49.142;7.768;2022-12-11T05:31:07;0.70;65.90
5868;DHT22;2960;49.142;7.768;2022-12-11T05:33:36;0.70;65.90
5868;DHT22;2960;49.142;7.768;2022-12-11T05:36:04;0.70;65.90
5868;DHT22;2960;49.142;7.768;2022-12-11T05:38:32;0.70;66.00
5868;DHT22;2960;49.142;7.768;2022-12-11T05:41:01;0.70;65.90
5868;DHT22;2960;49.142;7.768;2022-12-11T05:43:33;0.70;66.00
5868;DHT22;2960;49.142;7.768;2022-12-11T05:46:06;0.80;66.00
5868;DHT22;2960;49.142;7.768;2022-12-11T05:48:35;0.80;66.00
5868;DHT22;2960;49.142;7.768;2022-12-11T05:51:03;0.80;66.00
5868;DHT22;2960;49.142;7.768;2022-12-11T05:53:31;0.80;66.10
5868;DHT22;2960;49.142;7.768;2022-12-11T05:56:00;0.80;66.10
5868;DHT22;2960;49.142;7.768;2022-12-11T05:58:29;0.80;66.90
5868;DHT22;2960;49.142;7.768;2022-12-11T06:00:56;0.80;66.10
5868;DHT22;2960;49.142;7.768;2022-12-11T06:03:24;0.80;66.20
5868;DHT22;2960;49.142;7.768;2022-12-11T06:05:51;0.90;66.30
5868;DHT22;2960;49.142;7.768;2022-12-11T06:08:18;0.80;66.20
5868;DHT22;2960;49.142;7.768;2022-12-11T06:10:45;0.80;66.20
5868;DHT22;2960;49.142;7.768;2022-12-11T06:13:14;0.80;66.20
5868;DHT22;2960;49.142;7.768;2022-12-11T06:15:43;0.80;66.30
5868;DHT22;2960;49.142;7.768;2022-12-11T06:18:10;0.90;66.30
5868;DHT22;2960;49.142;7.768;2022-12-11T06:20:37;0.90;66.30
5868;DHT22;2960;49.142;7.768;2022-12-11T06:23:04;0.80;66.30
5868;DHT22;2960;49.142;7.768;2022-12-11T06:25:32;0.80;66.30
5868;DHT22;2960;49.142;7.768;2022-12-11T06:27:59;0.80;66.40
5868;DHT22;2960;49.142;7.768;2022-12-11T06:30:26;0.90;66.50
5868;DHT22;2960;49.142;7.768;2022-12-11T06:32:56;0.80;66.40
5868;DHT22;2960;49.142;7.768;2022-12-11T06:35:23;0.90;66.60
5868;DHT22;2960;49.142;7.768;2022-12-11T06:37:50;0.90;66.60
5868;DHT22;2960;49.142;7.768;2022-12-11T06:40:18;0.90;66.60
5868;DHT22;2960;49.142;7.768;2022-12-11T06:42:46;0.90;66.70
5868;DHT22;2960;49.142;7.768;2022-12-11T06:45:13;0.90;66.60
5868;DHT22;2960;49.142;7.768;2022-12-11T06:47:40;0.90;66.60
5868;DHT22;2960;49.142;7.768;2022-12-11T06:50:09;0.90;66.70
5868;DHT22;2960;49.142;7.768;2022-12-11T06:52:36;0.90;66.70
5868;DHT22;2960;49.142;7.768;2022-12-11T06:55:04;0.90;67.50
5868;DHT22;2960;49.142;7.768;2022-12-11T06:57:32;0.90;66.80
5868;DHT22;2960;49.142;7.768;2022-12-11T06:59:59;1.00;66.80
5868;DHT22;2960;49.142;7.768;2022-12-11T07:02:26;0.90;66.80
5868;DHT22;2960;49.142;7.768;2022-12-11T07:04:53;0.90;66.80
5868;DHT22;2960;49.142;7.768;2022-12-11T07:07:22;0.90;66.80
5868;DHT22;2960;49.142;7.768;2022-12-11T07:09:49;0.90;67.60
5868;DHT22;2960;49.142;7.768;2022-12-11T07:12:16;0.90;66.90
5868;DHT22;2960;49.142;7.768;2022-12-11T07:14:43;1.00;67.00
5868;DHT22;2960;49.142;7.768;2022-12-11T07:17:10;1.00;67.70
5868;DHT22;2960;49.142;7.768;2022-12-11T07:19:37;1.00;67.00
5868;DHT22;2960;49.142;7.768;2022-12-11T07:22:05;1.10;67.10
5868;DHT22;2960;49.142;7.768;2022-12-11T07:24:34;1.00;67.00
5868;DHT22;2960;49.142;7.768;2022-12-11T07:27:01;1.00;67.00
5868;DHT22;2960;49.142;7.768;2022-12-11T07:29:28;1.00;67.00
5868;DHT22;2960;49.142;7.768;2022-12-11T07:31:55;1.00;67.00
5868;DHT22;2960;49.142;7.768;2022-12-11T07:34:22;1.00;67.00
5868;DHT22;2960;49.142;7.768;2022-12-11T07:36:49;1.00;67.00
5868;DHT22;2960;49.142;7.768;2022-12-11T07:39:16;1.10;67.10
5868;DHT22;2960;49.142;7.768;2022-12-11T07:41:45;1.10;67.10
5868;DHT22;2960;49.142;7.768;2022-12-11T07:44:12;1.10;67.10
5868;DHT22;2960;49.142;7.768;2022-12-11T07:46:39;1.10;67.10
5868;DHT22;2960;49.142;7.768;2022-12-11T07:49:06;1.10;67.10
5868;DHT22;2960;49.142;7.768;2022-12-11T07:51:35;1.10;67.20
5868;DHT22;2960;49.142;7.768;2022-12-11T07:54:04;1.10;67.20
5868;DHT22;2960;49.142;7.768;2022-12-11T07:56:33;1.10;67.20
5868;DHT22;2960;49.142;7.768;2022-12-11T07:59:04;1.10;67.20
5868;DHT22;2960;49.142;7.768;2022-12-11T08:01:33;1.20;67.30
5868;DHT22;2960;49.142;7.768;2022-12-11T08:04:02;1.20;67.30
5868;DHT22;2960;49.142;7.768;2022-12-11T08:06:31;1.20;67.30
5868;DHT22;2960;49.142;7.768;2022-12-11T08:09:02;1.20;67.30
5868;DHT22;2960;49.142;7.768;2022-12-11T08:11:30;1.20;67.40
5868;DHT22;2960;49.142;7.768;2022-12-11T08:13:58;1.20;67.40
5868;DHT22;2960;49.142;7.768;2022-12-11T08:16:26;1.20;67.40
5868;DHT22;2960;49.142;7.768;2022-12-11T08:18:53;1.20;67.50
5868;DHT22;2960;49.142;7.768;2022-12-11T08:21:22;1.20;67.50
5868;DHT22;2960;49.142;7.768;2022-12-11T08:23:51;1.20;67.50
5868;DHT22;2960;49.142;7.768;2022-12-11T08:26:21;1.30;67.70
5868;DHT22;2960;49.142;7.768;2022-12-11T08:28:49;1.30;67.80
5868;DHT22;2960;49.142;7.768;2022-12-11T08:31:16;1.30;67.70
5868;DHT22;2960;49.142;7.768;2022-12-11T08:33:46;1.40;67.80
5868;DHT22;2960;49.142;7.768;2022-12-11T08:36:15;1.40;67.80
5868;DHT22;2960;49.142;7.768;2022-12-11T08:38:43;1.40;67.80
5868;DHT22;2960;49.142;7.768;2022-12-11T08:41:12;1.40;67.80
5868;DHT22;2960;49.142;7.768;2022-12-11T08:43:40;1.40;67.90
5868;DHT22;2960;49.142;7.768;2022-12-11T08:46:08;1.40;67.90
5868;DHT22;2960;49.142;7.768;2022-12-11T08:48:36;1.40;67.90
5868;DHT22;2960;49.142;7.768;2022-12-11T08:51:10;1.40;68.00
5868;DHT22;2960;49.142;7.768;2022-12-11T08:53:40;1.40;68.00
5868;DHT22;2960;49.142;7.768;2022-12-11T08:56:08;1.40;68.00
5868;DHT22;2960;49.142;7.768;2022-12-11T08:58:37;1.40;68.00
5868;DHT22;2960;49.142;7.768;2022-12-11T09:01:08;1.40;68.00
5868;DHT22;2960;49.142;7.768;2022-12-11T09:03:37;1.50;68.20
5868;DHT22;2960;49.142;7.768;2022-12-11T09:06:07;1.50;68.10
5868;DHT22;2960;49.142;7.768;2022-12-11T09:08:36;1.50;68.20
5868;DHT22;2960;49.142;7.768;2022-12-11T09:11:04;1.50;68.20
5868;DHT22;2960;49.142;7.768;2022-12-11T09:13:32;1.50;68.10
5868;DHT22;2960;49.142;7.768;2022-12-11T09:15:59;1.50;68.10
5868;DHT22;2960;49.142;7.768;2022-12-11T09:18:26;1.50;68.10
5868;DHT22;2960;49.142;7.768;2022-12-11T09:21:01;1.50;68.10
5868;DHT22;2960;49.142;7.768;2022-12-11T09:23:30;1.50;68.90
5868;DHT22;2960;49.142;7.768;2022-12-11T09:25:57;1.50;68.20
5868;DHT22;2960;49.142;7.768;2022-12-11T09:28:25;1.50;68.20
5868;DHT22;2960;49.142;7.768;2022-12-11T09:30:52;1.50;68.30
5868;DHT22;2960;49.142;7.768;2022-12-11T09:33:19;1.50;68.30
5868;DHT22;2960;49.142;7.768;2022-12-11T09:35:56;1.50;68.30
5868;DHT22;2960;49.142;7.768;2022-12-11T09:38:23;1.50;68.50
5868;DHT22;2960;49.142;7.768;2022-12-11T09:40:52;1.50;68.50
5868;DHT22;2960;49.142;7.768;2022-12-11T09:43:29;1.60;69.40
5868;DHT22;2960;49.142;7.768;2022-12-11T09:46:02;1.50;68.60
5868;DHT22;2960;49.142;7.768;2022-12-11T09:48:32;1.50;68.90
5868;DHT22;2960;49.142;7.768;2022-12-11T09:51:09;1.60;68.60
5868;DHT22;2960;49.142;7.768;2022-12-11T09:53:41;1.60;68.60
5868;DHT22;2960;49.142;7.768;2022-12-11T09:56:15;1.60;68.60
5868;DHT22;2960;49.142;7.768;2022-12-11T09:58:56;1.60;68.60
5868;DHT22;2960;49.142;7.768;2022-12-11T10:01:34;1.60;68.70
5868;DHT22;2960;49.142;7.768;2022-12-11T10:04:21;1.60;68.70
5868;DHT22;2960;49.142;7.768;2022-12-11T10:07:02;1.60;68.70
5868;DHT22;2960;49.142;7.768;2022-12-11T10:09:40;1.70;68.70
5868;DHT22;2960;49.142;7.768;2022-12-11T10:12:24;1.70;68.70
5868;DHT22;2960;49.142;7.768;2022-12-11T10:17:50;1.70;68.60
5868;DHT22;2960;49.142;7.768;2022-12-11T10:20:23;1.70;68.60
5868;DHT22;2960;49.142;7.768;2022-12-11T10:22:53;1.70;68.70
5868;DHT22;2960;49.142;7.768;2022-12-11T10:25:24;1.70;68.70
5868;DHT22;2960;49.142;7.768;2022-12-11T10:27:55;1.80;68.70
5868;DHT22;2960;49.142;7.768;2022-12-11T10:30:24;1.80;68.60
5868;DHT22;2960;49.142;7.768;2022-12-11T10:33:00;1.80;68.60
5868;DHT22;2960;49.142;7.768;2022-12-11T10:35:34;1.80;68.60
5868;DHT22;2960;49.142;7.768;2022-12-11T10:38:12;1.90;68.70
5868;DHT22;2960;49.142;7.768;2022-12-11T10:40:43;1.90;68.60
5868;DHT22;2960;49.142;7.768;2022-12-11T10:43:12;1.90;68.50
5868;DHT22;2960;49.142;7.768;2022-12-11T10:45:48;1.90;69.30
5868;DHT22;2960;49.142;7.768;2022-12-11T10:48:17;1.90;68.60
5868;DHT22;2960;49.142;7.768;2022-12-11T10:50:53;1.90;68.50
5868;DHT22;2960;49.142;7.768;2022-12-11T10:53:23;2.00;68.70
5868;DHT22;2960;49.142;7.768;2022-12-11T10:55:50;2.00;68.60
5868;DHT22;2960;49.142;7.768;2022-12-11T10:58:21;2.00;68.60
5868;DHT22;2960;49.142;7.768;2022-12-11T11:01:02;2.00;68.60
5868;DHT22;2960;49.142;7.768;2022-12-11T11:03:32;2.10;68.60
5868;DHT22;2960;49.142;7.768;2022-12-11T11:06:03;2.10;68.60
5868;DHT22;2960;49.142;7.768;2022-12-11T11:08:39;2.10;68.60
5868;DHT22;2960;49.142;7.768;2022-12-11T11:11:20;2.10;69.40
5868;DHT22;2960;49.142;7.768;2022-12-11T11:13:51;2.20;68.60
5868;DHT22;2960;49.142;7.768;2022-12-11T11:16:29;2.20;68.60
5868;DHT22;2960;49.142;7.768;2022-12-11T11:18:57;2.20;68.50
5868;DHT22;2960;49.142;7.768;2022-12-11T11:21:25;2.30;68.50
5868;DHT22;2960;49.142;7.768;2022-12-11T11:23:54;2.30;68.50
5868;DHT22;2960;49.142;7.768;2022-12-11T11:26:21;2.30;68.40
5868;DHT22;2960;49.142;7.768;2022-12-11T11:28:52;2.30;68.80
5868;DHT22;2960;49.142;7.768;2022-12-11T11:31:29;2.30;68.30
5868;DHT22;2960;49.142;7.768;2022-12-11T11:33:59;2.40;68.40
5868;DHT22;2960;49.142;7.768;2022-12-11T11:36:30;2.40;68.40
5868;DHT22;2960;49.142;7.768;2022-12-11T11:39:16;2.40;68.40
5868;DHT22;2960;49.142;7.768;2022-12-11T11:41:51;2.40;68.30
5868;DHT22;2960;49.142;7.768;2022-12-11T11:44:27;2.40;69.00
5868;DHT22;2960;49.142;7.768;2022-12-11T11:47:01;2.40;68.20
5868;DHT22;2960;49.142;7.768;2022-12-11T11:49:43;2.40;68.20
5868;DHT22;2960;49.142;7.768;2022-12-11T11:52:18;2.40;68.20
5868;DHT22;2960;49.142;7.768;2022-12-11T11:54:55;2.40;68.20
5868;DHT22;2960;49.142;7.768;2022-12-11T11:57:31;2.40;68.20
5868;DHT22;2960;49.142;7.768;2022-12-11T12:00:05;2.40;68.20
5868;DHT22;2960;49.142;7.768;2022-12-11T12:02:36;2.40;68.10
5868;DHT22;2960;49.142;7.768;2022-12-11T12:05:03;2.50;68.10
5868;DHT22;2960;49.142;7.768;2022-12-11T12:07:36;2.50;68.10
5868;DHT22;2960;49.142;7.768;2022-12-11T12:10:14;2.50;68.00
5868;DHT22;2960;49.142;7.768;2022-12-11T12:12:51;2.50;68.00
5868;DHT22;2960;49.142;7.768;2022-12-11T12:15:30;2.50;67.90
5868;DHT22;2960;49.142;7.768;2022-12-11T12:18:08;2.50;67.80
5868;DHT22;2960;49.142;7.768;2022-12-11T12:20:46;2.50;67.90
5868;DHT22;2960;49.142;7.768;2022-12-11T12:23:28;2.50;67.80
5868;DHT22;2960;49.142;7.768;2022-12-11T12:26:08;2.50;67.80
5868;DHT22;2960;49.142;7.768;2022-12-11T12:28:42;2.50;67.70
5868;DHT22;2960;49.142;7.768;2022-12-11T12:31:24;2.50;67.70
5868;DHT22;2960;49.142;7.768;2022-12-11T12:34:03;2.50;67.60
5868;DHT22;2960;49.142;7.768;2022-12-11T12:36:40;2.50;67.60
5868;DHT22;2960;49.142;7.768;2022-12-11T12:39:18;2.60;67.70
5868;DHT22;2960;49.142;7.768;2022-12-11T12:41:53;2.60;67.80
5868;DHT22;2960;49.142;7.768;2022-12-11T12:44:23;2.60;67.80
5868;DHT22;2960;49.142;7.768;2022-12-11T12:46:56;2.60;67.70
5868;DHT22;2960;49.142;7.768;2022-12-11T12:49:37;2.70;67.70
5868;DHT22;2960;49.142;7.768;2022-12-11T12:52:12;2.70;67.70
5868;DHT22;2960;49.142;7.768;2022-12-11T12:54:43;2.70;67.60
5868;DHT22;2960;49.142;7.768;2022-12-11T12:57:33;2.70;67.50
5868;DHT22;2960;49.142;7.768;2022-12-11T13:00:01;2.80;67.50
5868;DHT22;2960;49.142;7.768;2022-12-11T13:02:30;2.80;67.40
5868;DHT22;2960;49.142;7.768;2022-12-11T13:05:02;2.80;67.30
5868;DHT22;2960;49.142;7.768;2022-12-11T13:07:33;2.80;67.30
5868;DHT22;2960;49.142;7.768;2022-12-11T13:10:04;2.70;67.20
5868;DHT22;2960;49.142;7.768;2022-12-11T13:12:40;2.80;67.40
5868;DHT22;2960;49.142;7.768;2022-12-11T13:15:34;2.80;67.30
5868;DHT22;2960;49.142;7.768;2022-12-11T13:18:30;2.80;67.30
5868;DHT22;2960;49.142;7.768;2022-12-11T13:21:00;2.80;67.30
5868;DHT22;2960;49.142;7.768;2022-12-11T13:23:29;2.80;67.40
5868;DHT22;2960;49.142;7.768;2022-12-11T13:25:58;2.80;67.30
5868;DHT22;2960;49.142;7.768;2022-12-11T13:28:47;2.80;67.30
5868;DHT22;2960;49.142;7.768;2022-12-11T13:31:32;2.90;67.30
5868;DHT22;2960;49.142;7.768;2022-12-11T13:34:14;2.90;67.20
5868;DHT22;2960;49.142;7.768;2022-12-11T13:36:47;2.90;67.20
5868;DHT22;2960;49.142;7.768;2022-12-11T13:39:17;2.80;66.90
5868;DHT22;2960;49.142;7.768;2022-12-11T13:41:47;2.80;67.00
5868;DHT22;2960;49.142;7.768;2022-12-11T13:44:21;2.80;67.10
5868;DHT22;2960;49.142;7.768;2022-12-11T13:46:52;2.80;67.10
5868;DHT22;2960;49.142;7.768;2022-12-11T13:49:24;2.80;67.00
5868;DHT22;2960;49.142;7.768;2022-12-11T13:51:56;2.90;67.10
5868;DHT22;2960;49.142;7.768;2022-12-11T13:54:25;2.90;67.00
5868;DHT22;2960;49.142;7.768;2022-12-11T13:57:02;2.80;66.80
5868;DHT22;2960;49.142;7.768;2022-12-11T13:59:42;2.80;66.80
5868;DHT22;2960;49.142;7.768;2022-12-11T14:02:18;2.80;66.90
5868;DHT22;2960;49.142;7.768;2022-12-11T14:04:51;2.80;66.90
5868;DHT22;2960;49.142;7.768;2022-12-11T14:07:25;2.80;66.90
5868;DHT22;2960;49.142;7.768;2022-12-11T14:09:58;2.80;66.90
5868;DHT22;2960;49.142;7.768;2022-12-11T14:12:27;2.80;66.80
5868;DHT22;2960;49.142;7.768;2022-12-11T14:14:57;2.80;66.80
5868;DHT22;2960;49.142;7.768;2022-12-11T14:17:28;2.80;66.80
5868;DHT22;2960;49.142;7.768;2022-12-11T14:20:00;2.80;66.80
5868;DHT22;2960;49.142;7.768;2022-12-11T14:22:31;2.80;66.60
5868;DHT22;2960;49.142;7.768;2022-12-11T14:25:00;2.80;66.50
5868;DHT22;2960;49.142;7.768;2022-12-11T14:27:46;2.80;66.60
5868;DHT22;2960;49.142;7.768;2022-12-11T14:30:20;2.80;66.50
5868;DHT22;2960;49.142;7.768;2022-12-11T14:32:50;2.70;66.40
5868;DHT22;2960;49.142;7.768;2022-12-11T14:35:23;2.70;66.50
5868;DHT22;2960;49.142;7.768;2022-12-11T14:37:53;2.70;66.30
5868;DHT22;2960;49.142;7.768;2022-12-11T14:40:24;2.70;66.30
5868;DHT22;2960;49.142;7.768;2022-12-11T14:42:55;2.70;66.30
5868;DHT22;2960;49.142;7.768;2022-12-11T14:45:31;2.70;66.30
5868;DHT22;2960;49.142;7.768;2022-12-11T14:48:00;2.70;66.30
5868;DHT22;2960;49.142;7.768;2022-12-11T14:50:35;2.70;66.20
5868;DHT22;2960;49.142;7.768;2022-12-11T14:53:07;2.70;66.20
5868;DHT22;2960;49.142;7.768;2022-12-11T14:55:37;2.70;66.20
5868;DHT22;2960;49.142;7.768;2022-12-11T14:58:07;2.70;66.20
5868;DHT22;2960;49.142;7.768;2022-12-11T15:00:41;2.60;66.10
5868;DHT22;2960;49.142;7.768;2022-12-11T15:03:21;2.60;66.10
5868;DHT22;2960;49.142;7.768;2022-12-11T15:05:51;2.60;66.10
5868;DHT22;2960;49.142;7.768;2022-12-11T15:08:20;2.60;66.00
5868;DHT22;2960;49.142;7.768;2022-12-11T15:11:03;2.60;66.10
5868;DHT22;2960;49.142;7.768;2022-12-11T15:13:34;2.50;66.10
5868;DHT22;2960;49.142;7.768;2022-12-11T15:16:02;2.50;66.10
5868;DHT22;2960;49.142;7.768;2022-12-11T15:18:33;2.50;66.10
5868;DHT22;2960;49.142;7.768;2022-12-11T15:21:06;2.50;66.00
5868;DHT22;2960;49.142;7.768;2022-12-11T15:23:45;2.50;66.10
5868;DHT22;2960;49.142;7.768;2022-12-11T15:26:15;2.50;66.00
5868;DHT22;2960;49.142;7.768;2022-12-11T15:28:42;2.50;66.00
5868;DHT22;2960;49.142;7.768;2022-12-11T15:31:23;2.50;66.00
5868;DHT22;2960;49.142;7.768;2022-12-11T15:33:51;2.50;66.00
5868;DHT22;2960;49.142;7.768;2022-12-11T15:36:24;2.50;66.00
5868;DHT22;2960;49.142;7.768;2022-12-11T15:38:56;2.40;66.00
5868;DHT22;2960;49.142;7.768;2022-12-11T15:41:24;2.40;66.00
5868;DHT22;2960;49.142;7.768;2022-12-11T15:43:53;2.50;66.30
5868;DHT22;2960;49.142;7.768;2022-12-11T15:46:21;2.50;66.20
5868;DHT22;2960;49.142;7.768;2022-12-11T15:48:48;2.50;66.20
5868;DHT22;2960;49.142;7.768;2022-12-11T15:51:16;2.50;66.10
5868;DHT22;2960;49.142;7.768;2022-12-11T15:53:44;2.50;66.10
5868;DHT22;2960;49.142;7.768;2022-12-11T15:56:12;2.50;66.10
5868;DHT22;2960;49.142;7.768;2022-12-11T15:58:40;2.50;66.10
5868;DHT22;2960;49.142;7.768;2022-12-11T16:01:09;2.50;66.10
5868;DHT22;2960;49.142;7.768;2022-12-11T16:03:36;2.50;66.10
5868;DHT22;2960;49.142;7.768;2022-12-11T16:06:03;2.50;66.10
5868;DHT22;2960;49.142;7.768;2022-12-11T16:08:30;2.50;66.00
5868;DHT22;2960;49.142;7.768;2022-12-11T16:10:59;2.50;66.00
5868;DHT22;2960;49.142;7.768;2022-12-11T16:13:26;2.50;66.00
5868;DHT22;2960;49.142;7.768;2022-12-11T16:15:53;2.50;66.00
5868;DHT22;2960;49.142;7.768;2022-12-11T16:18:22;2.50;66.10
5868;DHT22;2960;49.142;7.768;2022-12-11T16:20:51;2.50;66.10
5868;DHT22;2960;49.142;7.768;2022-12-11T16:23:18;2.50;66.10
5868;DHT22;2960;49.142;7.768;2022-12-11T16:25:46;2.50;66.10
5868;DHT22;2960;49.142;7.768;2022-12-11T16:28:17;2.50;66.80
5868;DHT22;2960;49.142;7.768;2022-12-11T16:30:45;2.50;66.10
5868;DHT22;2960;49.142;7.768;2022-12-11T16:33:13;2.50;66.10
5868;DHT22;2960;49.142;7.768;2022-12-11T16:35:40;2.50;66.10
5868;DHT22;2960;49.142;7.768;2022-12-11T16:38:08;2.40;66.00
5868;DHT22;2960;49.142;7.768;2022-12-11T16:40:35;2.40;66.00
5868;DHT22;2960;49.142;7.768;2022-12-11T16:43:03;2.40;66.90